Coribe, Brazil
Current Conditions -  °F | °C
As of 9:00 PM on Tuesday 21 Oct 2014 (Local Time) from SBMK Reporting Station
Overcast Overcast  
Wind Chill: 77°   Ceiling: 10000
Heat Index: 79°   Visibility: 6mi
Dew Point: 63°   Wind: 5mph
Humidity: 61%   Direction: 160°SSE
Pressure: 30"   Gusts: NA
Location:  13.83°S, 44.45°W
Report Text: SBMK 220000Z 16004KT 9999 FEW048 OVC100 25/17 Q1016
Loading
Personal Weather Stations






























Interactive Weather Map
Tropical Storm Tracking
New forecast layout! Learn more

10-Day Weather Forecast

Advertisements
Track Severe Weather on mobile